sensor_id;sensor_type;location;lat;lon;timestamp;temperature;humidity
75161;DHT22;67232;50.096;8.716;2023-05-10T00:01:32;17.60;84.00
75161;DHT22;67232;50.096;8.716;2023-05-10T00:03:57;17.60;83.80
75161;DHT22;67232;50.096;8.716;2023-05-10T00:06:25;17.50;83.80
75161;DHT22;67232;50.096;8.716;2023-05-10T00:08:56;17.50;83.50
75161;DHT22;67232;50.096;8.716;2023-05-10T00:11:24;17.40;83.50
75161;DHT22;67232;50.096;8.716;2023-05-10T00:13:49;17.40;84.00
75161;DHT22;67232;50.096;8.716;2023-05-10T00:16:15;17.50;83.30
75161;DHT22;67232;50.096;8.716;2023-05-10T00:18:41;17.50;83.60
75161;DHT22;67232;50.096;8.716;2023-05-10T00:21:09;17.50;83.60
75161;DHT22;67232;50.096;8.716;2023-05-10T00:23:36;17.40;83.70
75161;DHT22;67232;50.096;8.716;2023-05-10T00:26:03;17.40;83.60
75161;DHT22;67232;50.096;8.716;2023-05-10T00:28:28;17.50;83.20
75161;DHT22;67232;50.096;8.716;2023-05-10T00:30:54;17.40;83.30
75161;DHT22;67232;50.096;8.716;2023-05-10T00:33:20;17.40;83.40
75161;DHT22;67232;50.096;8.716;2023-05-10T00:35:46;17.40;82.80
75161;DHT22;67232;50.096;8.716;2023-05-10T00:38:11;17.20;83.20
75161;DHT22;67232;50.096;8.716;2023-05-10T00:40:39;17.20;83.40
75161;DHT22;67232;50.096;8.716;2023-05-10T00:43:05;17.20;83.10
75161;DHT22;67232;50.096;8.716;2023-05-10T00:45:33;17.20;82.80
75161;DHT22;67232;50.096;8.716;2023-05-10T00:48:04;17.00;83.40
75161;DHT22;67232;50.096;8.716;2023-05-10T00:50:31;17.00;83.50
75161;DHT22;67232;50.096;8.716;2023-05-10T00:52:59;17.00;83.20
75161;DHT22;67232;50.096;8.716;2023-05-10T00:55:25;17.00;83.10
75161;DHT22;67232;50.096;8.716;2023-05-10T00:57:54;17.00;83.20
75161;DHT22;67232;50.096;8.716;2023-05-10T01:00:20;16.90;83.00
75161;DHT22;67232;50.096;8.716;2023-05-10T01:02:46;16.90;83.00
75161;DHT22;67232;50.096;8.716;2023-05-10T01:05:12;16.90;83.20
75161;DHT22;67232;50.096;8.716;2023-05-10T01:07:40;16.90;82.80
75161;DHT22;67232;50.096;8.716;2023-05-10T01:13:38;16.90;82.90
75161;DHT22;67232;50.096;8.716;2023-05-10T01:16:04;16.80;82.90
75161;DHT22;67232;50.096;8.716;2023-05-10T01:18:36;16.80;82.80
75161;DHT22;67232;50.096;8.716;2023-05-10T01:26:53;16.70;83.00
75161;DHT22;67232;50.096;8.716;2023-05-10T01:30:13;16.60;83.30
75161;DHT22;67232;50.096;8.716;2023-05-10T01:32:52;16.60;83.30
75161;DHT22;67232;50.096;8.716;2023-05-10T01:41:15;16.60;82.80
75161;DHT22;67232;50.096;8.716;2023-05-10T01:46:43;16.70;82.60
75161;DHT22;67232;50.096;8.716;2023-05-10T01:49:13;16.60;82.70
75161;DHT22;67232;50.096;8.716;2023-05-10T01:51:52;16.40;83.10
75161;DHT22;67232;50.096;8.716;2023-05-10T01:54:21;16.50;83.20
75161;DHT22;67232;50.096;8.716;2023-05-10T01:56:55;16.50;83.20
75161;DHT22;67232;50.096;8.716;2023-05-10T01:59:21;16.50;83.00
75161;DHT22;67232;50.096;8.716;2023-05-10T02:01:48;16.50;82.80
75161;DHT22;67232;50.096;8.716;2023-05-10T02:04:20;16.50;83.00
75161;DHT22;67232;50.096;8.716;2023-05-10T02:06:47;16.60;82.90
75161;DHT22;67232;50.096;8.716;2023-05-10T02:09:14;16.50;82.90
75161;DHT22;67232;50.096;8.716;2023-05-10T02:11:43;16.50;82.80
75161;DHT22;67232;50.096;8.716;2023-05-10T02:14:12;16.40;83.00
75161;DHT22;67232;50.096;8.716;2023-05-10T02:16:44;16.30;83.20
75161;DHT22;67232;50.096;8.716;2023-05-10T02:19:13;16.30;83.20
75161;DHT22;67232;50.096;8.716;2023-05-10T02:21:41;16.20;83.30
75161;DHT22;67232;50.096;8.716;2023-05-10T02:24:11;16.30;83.20
75161;DHT22;67232;50.096;8.716;2023-05-10T02:26:38;16.30;82.90
75161;DHT22;67232;50.096;8.716;2023-05-10T02:29:05;16.30;83.10
75161;DHT22;67232;50.096;8.716;2023-05-10T02:31:32;16.30;83.20
75161;DHT22;67232;50.096;8.716;2023-05-10T02:34:01;16.30;83.10
75161;DHT22;67232;50.096;8.716;2023-05-10T02:36:28;16.30;83.00
75161;DHT22;67232;50.096;8.716;2023-05-10T02:38:58;16.30;83.00
75161;DHT22;67232;50.096;8.716;2023-05-10T02:41:28;16.40;83.20
75161;DHT22;67232;50.096;8.716;2023-05-10T02:43:57;16.30;83.00
75161;DHT22;67232;50.096;8.716;2023-05-10T02:46:26;16.30;83.20
75161;DHT22;67232;50.096;8.716;2023-05-10T02:48:54;16.30;83.10
75161;DHT22;67232;50.096;8.716;2023-05-10T02:51:28;16.20;83.10
75161;DHT22;67232;50.096;8.716;2023-05-10T02:53:57;16.10;83.40
75161;DHT22;67232;50.096;8.716;2023-05-10T02:56:36;16.20;83.50
75161;DHT22;67232;50.096;8.716;2023-05-10T02:59:01;16.10;83.50
75161;DHT22;67232;50.096;8.716;2023-05-10T03:01:27;16.10;83.30
75161;DHT22;67232;50.096;8.716;2023-05-10T03:03:52;16.10;83.40
75161;DHT22;67232;50.096;8.716;2023-05-10T03:06:18;16.10;83.30
75161;DHT22;67232;50.096;8.716;2023-05-10T03:08:45;16.00;83.60
75161;DHT22;67232;50.096;8.716;2023-05-10T03:14:06;16.10;83.40
75161;DHT22;67232;50.096;8.716;2023-05-10T03:16:35;16.20;83.10
75161;DHT22;67232;50.096;8.716;2023-05-10T03:19:18;16.20;83.10
75161;DHT22;67232;50.096;8.716;2023-05-10T03:21:50;16.20;83.10
75161;DHT22;67232;50.096;8.716;2023-05-10T03:24:20;16.10;83.30
75161;DHT22;67232;50.096;8.716;2023-05-10T03:26:47;16.10;83.20
75161;DHT22;67232;50.096;8.716;2023-05-10T03:29:16;16.10;83.10
75161;DHT22;67232;50.096;8.716;2023-05-10T03:31:42;16.10;83.20
75161;DHT22;67232;50.096;8.716;2023-05-10T03:34:08;16.10;83.00
75161;DHT22;67232;50.096;8.716;2023-05-10T03:36:36;16.00;83.20
75161;DHT22;67232;50.096;8.716;2023-05-10T03:39:02;16.10;83.20
75161;DHT22;67232;50.096;8.716;2023-05-10T03:41:32;16.10;83.30
75161;DHT22;67232;50.096;8.716;2023-05-10T03:43:58;16.10;83.20
75161;DHT22;67232;50.096;8.716;2023-05-10T03:46:23;16.10;82.80
75161;DHT22;67232;50.096;8.716;2023-05-10T03:48:53;16.10;82.90
75161;DHT22;67232;50.096;8.716;2023-05-10T03:51:21;16.10;83.00
75161;DHT22;67232;50.096;8.716;2023-05-10T03:53:47;16.00;83.00
75161;DHT22;67232;50.096;8.716;2023-05-10T03:56:13;16.00;83.30
75161;DHT22;67232;50.096;8.716;2023-05-10T03:58:41;16.10;83.30
75161;DHT22;67232;50.096;8.716;2023-05-10T04:01:06;16.00;83.10
75161;DHT22;67232;50.096;8.716;2023-05-10T04:03:34;16.10;83.00
75161;DHT22;67232;50.096;8.716;2023-05-10T04:06:02;16.00;83.30
75161;DHT22;67232;50.096;8.716;2023-05-10T04:08:28;16.00;83.30
75161;DHT22;67232;50.096;8.716;2023-05-10T04:10:54;16.00;83.30
75161;DHT22;67232;50.096;8.716;2023-05-10T04:13:19;16.10;83.30
75161;DHT22;67232;50.096;8.716;2023-05-10T04:15:47;16.20;83.30
75161;DHT22;67232;50.096;8.716;2023-05-10T04:18:13;16.20;83.40
75161;DHT22;67232;50.096;8.716;2023-05-10T04:20:38;16.30;83.00
75161;DHT22;67232;50.096;8.716;2023-05-10T04:23:09;16.30;82.90
75161;DHT22;67232;50.096;8.716;2023-05-10T04:25:39;16.30;82.80
75161;DHT22;67232;50.096;8.716;2023-05-10T04:28:05;16.30;82.70
75161;DHT22;67232;50.096;8.716;2023-05-10T04:30:30;16.30;82.90
75161;DHT22;67232;50.096;8.716;2023-05-10T04:32:56;16.30;82.80
75161;DHT22;67232;50.096;8.716;2023-05-10T04:35:21;16.20;82.80
75161;DHT22;67232;50.096;8.716;2023-05-10T04:37:51;16.30;82.90
75161;DHT22;67232;50.096;8.716;2023-05-10T04:40:17;16.20;82.90
75161;DHT22;67232;50.096;8.716;2023-05-10T04:42:43;16.30;83.10
75161;DHT22;67232;50.096;8.716;2023-05-10T04:45:13;16.30;83.10
75161;DHT22;67232;50.096;8.716;2023-05-10T04:47:42;16.40;82.80
75161;DHT22;67232;50.096;8.716;2023-05-10T04:50:12;16.40;82.80
75161;DHT22;67232;50.096;8.716;2023-05-10T04:52:40;16.40;82.80
75161;DHT22;67232;50.096;8.716;2023-05-10T04:55:05;16.50;82.80
75161;DHT22;67232;50.096;8.716;2023-05-10T04:57:33;16.60;82.70
75161;DHT22;67232;50.096;8.716;2023-05-10T04:59:59;16.50;82.40
75161;DHT22;67232;50.096;8.716;2023-05-10T05:02:25;16.50;82.60
75161;DHT22;67232;50.096;8.716;2023-05-10T05:04:55;16.50;82.50
75161;DHT22;67232;50.096;8.716;2023-05-10T05:07:23;16.50;82.60
75161;DHT22;67232;50.096;8.716;2023-05-10T05:09:51;16.50;82.60
75161;DHT22;67232;50.096;8.716;2023-05-10T05:12:19;16.50;82.60
75161;DHT22;67232;50.096;8.716;2023-05-10T05:14:46;16.50;82.50
75161;DHT22;67232;50.096;8.716;2023-05-10T05:17:12;16.50;82.70
75161;DHT22;67232;50.096;8.716;2023-05-10T05:19:40;16.50;82.80
75161;DHT22;67232;50.096;8.716;2023-05-10T05:22:08;16.50;82.70
75161;DHT22;67232;50.096;8.716;2023-05-10T05:24:36;16.50;83.00
75161;DHT22;67232;50.096;8.716;2023-05-10T05:27:07;16.50;82.80
75161;DHT22;67232;50.096;8.716;2023-05-10T05:29:35;16.60;82.60
75161;DHT22;67232;50.096;8.716;2023-05-10T05:32:01;16.30;83.00
75161;DHT22;67232;50.096;8.716;2023-05-10T05:34:26;16.30;83.10
75161;DHT22;67232;50.096;8.716;2023-05-10T05:36:54;16.40;83.50
75161;DHT22;67232;50.096;8.716;2023-05-10T05:39:20;16.30;83.20
75161;DHT22;67232;50.096;8.716;2023-05-10T05:41:46;16.30;83.60
75161;DHT22;67232;50.096;8.716;2023-05-10T05:44:11;16.40;83.20
75161;DHT22;67232;50.096;8.716;2023-05-10T05:46:39;16.40;83.20
75161;DHT22;67232;50.096;8.716;2023-05-10T05:49:05;16.40;83.10
75161;DHT22;67232;50.096;8.716;2023-05-10T05:51:30;16.40;83.00
75161;DHT22;67232;50.096;8.716;2023-05-10T05:53:56;16.30;83.00
75161;DHT22;67232;50.096;8.716;2023-05-10T05:56:24;16.40;83.20
75161;DHT22;67232;50.096;8.716;2023-05-10T05:58:50;16.50;83.20
75161;DHT22;67232;50.096;8.716;2023-05-10T06:01:18;16.50;83.10
75161;DHT22;67232;50.096;8.716;2023-05-10T06:03:44;16.50;83.40
75161;DHT22;67232;50.096;8.716;2023-05-10T06:06:12;16.60;82.80
75161;DHT22;67232;50.096;8.716;2023-05-10T06:08:37;16.70;82.60
75161;DHT22;67232;50.096;8.716;2023-05-10T06:11:03;16.80;82.30
75161;DHT22;67232;50.096;8.716;2023-05-10T06:13:31;16.80;82.50
75161;DHT22;67232;50.096;8.716;2023-05-10T06:15:58;16.80;82.60
75161;DHT22;67232;50.096;8.716;2023-05-10T06:18:24;16.80;82.70
75161;DHT22;67232;50.096;8.716;2023-05-10T06:20:50;16.80;82.50
75161;DHT22;67232;50.096;8.716;2023-05-10T06:23:18;16.90;82.40
75161;DHT22;67232;50.096;8.716;2023-05-10T06:25:47;16.90;82.60
75161;DHT22;67232;50.096;8.716;2023-05-10T06:28:15;16.90;82.10
75161;DHT22;67232;50.096;8.716;2023-05-10T06:30:43;16.90;82.00
75161;DHT22;67232;50.096;8.716;2023-05-10T06:33:08;16.90;82.20
75161;DHT22;67232;50.096;8.716;2023-05-10T06:35:39;16.80;82.10
75161;DHT22;67232;50.096;8.716;2023-05-10T06:38:05;16.80;82.80
75161;DHT22;67232;50.096;8.716;2023-05-10T06:40:33;16.80;82.80
75161;DHT22;67232;50.096;8.716;2023-05-10T06:42:58;17.00;82.30
75161;DHT22;67232;50.096;8.716;2023-05-10T06:45:24;16.90;81.70
75161;DHT22;67232;50.096;8.716;2023-05-10T06:47:49;16.90;81.90
75161;DHT22;67232;50.096;8.716;2023-05-10T06:50:15;16.80;82.30
75161;DHT22;67232;50.096;8.716;2023-05-10T06:52:41;17.00;82.00
75161;DHT22;67232;50.096;8.716;2023-05-10T06:55:09;16.90;82.00
75161;DHT22;67232;50.096;8.716;2023-05-10T06:57:37;16.90;81.90
75161;DHT22;67232;50.096;8.716;2023-05-10T07:00:05;16.70;82.30
75161;DHT22;67232;50.096;8.716;2023-05-10T07:02:31;16.80;82.30
75161;DHT22;67232;50.096;8.716;2023-05-10T07:05:01;16.80;82.70
75161;DHT22;67232;50.096;8.716;2023-05-10T07:07:27;17.00;82.40
75161;DHT22;67232;50.096;8.716;2023-05-10T07:09:55;17.00;81.50
75161;DHT22;67232;50.096;8.716;2023-05-10T07:12:26;17.10;81.40
75161;DHT22;67232;50.096;8.716;2023-05-10T07:14:53;17.20;81.80
75161;DHT22;67232;50.096;8.716;2023-05-10T07:17:19;17.30;81.80
75161;DHT22;67232;50.096;8.716;2023-05-10T07:19:47;17.20;81.20
75161;DHT22;67232;50.096;8.716;2023-05-10T07:22:13;17.20;81.50
75161;DHT22;67232;50.096;8.716;2023-05-10T07:24:40;17.20;81.60
75161;DHT22;67232;50.096;8.716;2023-05-10T07:27:06;17.30;81.20
75161;DHT22;67232;50.096;8.716;2023-05-10T07:29:32;17.30;81.30
75161;DHT22;67232;50.096;8.716;2023-05-10T07:32:00;17.40;81.00
75161;DHT22;67232;50.096;8.716;2023-05-10T07:34:26;17.50;81.00
75161;DHT22;67232;50.096;8.716;2023-05-10T07:36:52;17.50;81.00
75161;DHT22;67232;50.096;8.716;2023-05-10T07:39:18;17.60;80.70
75161;DHT22;67232;50.096;8.716;2023-05-10T07:41:50;17.70;80.60
75161;DHT22;67232;50.096;8.716;2023-05-10T07:44:16;17.80;80.90
75161;DHT22;67232;50.096;8.716;2023-05-10T07:46:43;17.80;80.40
75161;DHT22;67232;50.096;8.716;2023-05-10T07:49:11;17.80;80.10
75161;DHT22;67232;50.096;8.716;2023-05-10T07:51:37;17.60;80.50
75161;DHT22;67232;50.096;8.716;2023-05-10T07:54:05;17.60;80.40
75161;DHT22;67232;50.096;8.716;2023-05-10T07:56:32;17.50;80.80
75161;DHT22;67232;50.096;8.716;2023-05-10T07:59:02;17.70;80.40
75161;DHT22;67232;50.096;8.716;2023-05-10T08:01:33;17.60;80.80
75161;DHT22;67232;50.096;8.716;2023-05-10T08:04:00;17.90;81.20
75161;DHT22;67232;50.096;8.716;2023-05-10T08:06:28;18.20;80.20
75161;DHT22;67232;50.096;8.716;2023-05-10T08:08:57;18.30;79.30
75161;DHT22;67232;50.096;8.716;2023-05-10T08:11:25;18.40;78.80
75161;DHT22;67232;50.096;8.716;2023-05-10T08:13:53;18.40;78.20
75161;DHT22;67232;50.096;8.716;2023-05-10T08:16:18;18.40;78.60
75161;DHT22;67232;50.096;8.716;2023-05-10T08:18:44;18.50;78.10
75161;DHT22;67232;50.096;8.716;2023-05-10T08:21:12;18.60;78.10
75161;DHT22;67232;50.096;8.716;2023-05-10T08:23:37;18.70;77.70
75161;DHT22;67232;50.096;8.716;2023-05-10T08:26:03;18.80;77.70
75161;DHT22;67232;50.096;8.716;2023-05-10T08:28:29;18.90;78.00
75161;DHT22;67232;50.096;8.716;2023-05-10T08:30:56;19.00;78.20
75161;DHT22;67232;50.096;8.716;2023-05-10T08:33:22;19.10;77.00
75161;DHT22;67232;50.096;8.716;2023-05-10T08:35:53;19.10;76.90
75161;DHT22;67232;50.096;8.716;2023-05-10T08:38:21;19.10;76.90
75161;DHT22;67232;50.096;8.716;2023-05-10T08:40:49;18.90;77.30
75161;DHT22;67232;50.096;8.716;2023-05-10T08:43:16;19.00;77.50
75161;DHT22;67232;50.096;8.716;2023-05-10T08:45:42;19.10;76.70
75161;DHT22;67232;50.096;8.716;2023-05-10T08:48:09;19.00;76.10
75161;DHT22;67232;50.096;8.716;2023-05-10T08:50:39;18.90;76.80
75161;DHT22;67232;50.096;8.716;2023-05-10T08:53:09;18.90;77.00
75161;DHT22;67232;50.096;8.716;2023-05-10T08:55:37;19.00;76.50
75161;DHT22;67232;50.096;8.716;2023-05-10T08:58:07;19.00;76.70
75161;DHT22;67232;50.096;8.716;2023-05-10T09:00:35;19.00;77.10
75161;DHT22;67232;50.096;8.716;2023-05-10T09:03:05;19.00;76.70
75161;DHT22;67232;50.096;8.716;2023-05-10T09:05:33;19.00;76.00
75161;DHT22;67232;50.096;8.716;2023-05-10T09:08:01;19.00;76.50
75161;DHT22;67232;50.096;8.716;2023-05-10T09:10:26;19.20;76.40
75161;DHT22;67232;50.096;8.716;2023-05-10T09:12:53;19.30;76.40
75161;DHT22;67232;50.096;8.716;2023-05-10T09:15:23;19.30;75.20
75161;DHT22;67232;50.096;8.716;2023-05-10T09:17:50;19.30;75.40
75161;DHT22;67232;50.096;8.716;2023-05-10T09:20:17;19.30;75.50
75161;DHT22;67232;50.096;8.716;2023-05-10T09:22:43;19.20;75.60
75161;DHT22;67232;50.096;8.716;2023-05-10T09:25:11;19.10;76.00
75161;DHT22;67232;50.096;8.716;2023-05-10T09:27:38;19.00;76.00
75161;DHT22;67232;50.096;8.716;2023-05-10T09:30:07;18.90;75.90
75161;DHT22;67232;50.096;8.716;2023-05-10T09:32:40;18.90;76.70
75161;DHT22;67232;50.096;8.716;2023-05-10T09:35:07;18.90;76.40
75161;DHT22;67232;50.096;8.716;2023-05-10T09:37:33;18.90;76.10
75161;DHT22;67232;50.096;8.716;2023-05-10T09:39:58;18.80;76.10
75161;DHT22;67232;50.096;8.716;2023-05-10T09:42:24;18.70;76.60
75161;DHT22;67232;50.096;8.716;2023-05-10T09:44:50;18.70;76.80
75161;DHT22;67232;50.096;8.716;2023-05-10T09:47:18;18.70;77.00
75161;DHT22;67232;50.096;8.716;2023-05-10T09:49:49;18.70;76.80
75161;DHT22;67232;50.096;8.716;2023-05-10T09:52:14;18.80;76.80
75161;DHT22;67232;50.096;8.716;2023-05-10T09:54:52;18.80;77.00
75161;DHT22;67232;50.096;8.716;2023-05-10T09:57:21;18.80;77.00
75161;DHT22;67232;50.096;8.716;2023-05-10T09:59:49;18.90;76.90
75161;DHT22;67232;50.096;8.716;2023-05-10T10:02:16;18.80;76.50
75161;DHT22;67232;50.096;8.716;2023-05-10T10:04:49;18.70;76.80
75161;DHT22;67232;50.096;8.716;2023-05-10T10:07:22;18.60;77.30
75161;DHT22;67232;50.096;8.716;2023-05-10T10:09:51;18.60;77.80
75161;DHT22;67232;50.096;8.716;2023-05-10T10:12:17;18.50;80.20
75161;DHT22;67232;50.096;8.716;2023-05-10T10:14:42;18.40;81.20
75161;DHT22;67232;50.096;8.716;2023-05-10T10:17:09;18.30;80.00
75161;DHT22;67232;50.096;8.716;2023-05-10T10:19:35;18.20;79.40
75161;DHT22;67232;50.096;8.716;2023-05-10T10:22:04;18.00;80.60
75161;DHT22;67232;50.096;8.716;2023-05-10T10:24:34;18.10;81.20
75161;DHT22;67232;50.096;8.716;2023-05-10T10:27:24;18.00;80.90
75161;DHT22;67232;50.096;8.716;2023-05-10T10:32:38;18.00;82.00
75161;DHT22;67232;50.096;8.716;2023-05-10T10:35:08;17.90;81.90
75161;DHT22;67232;50.096;8.716;2023-05-10T10:37:50;18.00;81.90
75161;DHT22;67232;50.096;8.716;2023-05-10T10:40:34;18.10;81.60
75161;DHT22;67232;50.096;8.716;2023-05-10T10:46:08;18.10;81.40
75161;DHT22;67232;50.096;8.716;2023-05-10T10:48:40;18.10;81.90
75161;DHT22;67232;50.096;8.716;2023-05-10T10:51:16;18.10;81.00
75161;DHT22;67232;50.096;8.716;2023-05-10T10:53:43;17.90;81.10
75161;DHT22;67232;50.096;8.716;2023-05-10T10:56:27;17.90;82.20
75161;DHT22;67232;50.096;8.716;2023-05-10T10:58:59;18.00;81.10
75161;DHT22;67232;50.096;8.716;2023-05-10T11:01:35;18.00;81.20
75161;DHT22;67232;50.096;8.716;2023-05-10T11:06:35;18.30;80.80
75161;DHT22;67232;50.096;8.716;2023-05-10T11:09:13;18.30;79.80
75161;DHT22;67232;50.096;8.716;2023-05-10T11:11:51;18.50;79.80
75161;DHT22;67232;50.096;8.716;2023-05-10T11:14:24;18.50;79.10
75161;DHT22;67232;50.096;8.716;2023-05-10T11:16:50;18.50;79.20
75161;DHT22;67232;50.096;8.716;2023-05-10T11:19:16;18.60;79.70
75161;DHT22;67232;50.096;8.716;2023-05-10T11:21:50;18.90;79.20
75161;DHT22;67232;50.096;8.716;2023-05-10T11:24:22;19.20;79.00
75161;DHT22;67232;50.096;8.716;2023-05-10T11:26:53;19.30;78.80
75161;DHT22;67232;50.096;8.716;2023-05-10T11:29:30;19.30;79.00
75161;DHT22;67232;50.096;8.716;2023-05-10T11:32:04;19.20;78.90
75161;DHT22;67232;50.096;8.716;2023-05-10T11:34:33;19.10;79.70
75161;DHT22;67232;50.096;8.716;2023-05-10T11:36:59;18.90;78.50
75161;DHT22;67232;50.096;8.716;2023-05-10T11:39:28;18.90;79.00
75161;DHT22;67232;50.096;8.716;2023-05-10T11:41:57;18.90;79.10
75161;DHT22;67232;50.096;8.716;2023-05-10T11:44:28;18.70;79.00
75161;DHT22;67232;50.096;8.716;2023-05-10T11:46:54;18.60;79.40
75161;DHT22;67232;50.096;8.716;2023-05-10T11:49:20;18.60;80.10
75161;DHT22;67232;50.096;8.716;2023-05-10T11:51:46;18.50;79.70
75161;DHT22;67232;50.096;8.716;2023-05-10T11:54:14;18.50;79.80
75161;DHT22;67232;50.096;8.716;2023-05-10T11:56:40;18.60;79.50
75161;DHT22;67232;50.096;8.716;2023-05-10T11:59:08;18.60;79.80
75161;DHT22;67232;50.096;8.716;2023-05-10T12:01:36;18.70;79.20
75161;DHT22;67232;50.096;8.716;2023-05-10T12:04:02;18.80;78.40
75161;DHT22;67232;50.096;8.716;2023-05-10T12:06:28;18.80;78.40
75161;DHT22;67232;50.096;8.716;2023-05-10T12:08:57;18.80;79.10
75161;DHT22;67232;50.096;8.716;2023-05-10T12:11:27;18.80;79.00
75161;DHT22;67232;50.096;8.716;2023-05-10T12:13:54;18.90;78.80
75161;DHT22;67232;50.096;8.716;2023-05-10T12:18:52;19.10;77.70
75161;DHT22;67232;50.096;8.716;2023-05-10T12:21:19;19.40;77.80
75161;DHT22;67232;50.096;8.716;2023-05-10T12:23:46;19.70;77.10
75161;DHT22;67232;50.096;8.716;2023-05-10T12:26:12;19.80;76.40
75161;DHT22;67232;50.096;8.716;2023-05-10T12:28:38;20.00;76.00
75161;DHT22;67232;50.096;8.716;2023-05-10T12:31:07;20.40;75.80
75161;DHT22;67232;50.096;8.716;2023-05-10T12:33:41;20.40;75.10
75161;DHT22;67232;50.096;8.716;2023-05-10T12:36:08;20.60;76.00
75161;DHT22;67232;50.096;8.716;2023-05-10T12:38:38;20.80;73.50
75161;DHT22;67232;50.096;8.716;2023-05-10T12:41:06;21.00;72.70
75161;DHT22;67232;50.096;8.716;2023-05-10T12:43:33;21.20;72.80
75161;DHT22;67232;50.096;8.716;2023-05-10T12:46:04;21.30;71.60
75161;DHT22;67232;50.096;8.716;2023-05-10T12:48:33;21.50;72.20
75161;DHT22;67232;50.096;8.716;2023-05-10T12:51:02;21.70;69.90
75161;DHT22;67232;50.096;8.716;2023-05-10T12:53:28;21.50;69.00
75161;DHT22;67232;50.096;8.716;2023-05-10T12:55:58;21.60;71.70
75161;DHT22;67232;50.096;8.716;2023-05-10T12:58:24;21.80;70.50
75161;DHT22;67232;50.096;8.716;2023-05-10T13:00:52;21.80;67.70
75161;DHT22;67232;50.096;8.716;2023-05-10T13:03:18;21.50;66.50
75161;DHT22;67232;50.096;8.716;2023-05-10T13:05:44;21.40;67.50
75161;DHT22;67232;50.096;8.716;2023-05-10T13:08:09;21.40;68.70
75161;DHT22;67232;50.096;8.716;2023-05-10T13:10:35;21.30;69.80
75161;DHT22;67232;50.096;8.716;2023-05-10T13:13:06;21.10;66.90
75161;DHT22;67232;50.096;8.716;2023-05-10T13:15:35;20.90;66.70
75161;DHT22;67232;50.096;8.716;2023-05-10T13:18:01;20.80;67.70
75161;DHT22;67232;50.096;8.716;2023-05-10T13:20:29;21.00;67.40
75161;DHT22;67232;50.096;8.716;2023-05-10T13:22:55;21.10;67.00
75161;DHT22;67232;50.096;8.716;2023-05-10T13:25:20;21.20;66.60
75161;DHT22;67232;50.096;8.716;2023-05-10T13:27:46;21.20;66.80
75161;DHT22;67232;50.096;8.716;2023-05-10T13:30:14;21.40;66.90
75161;DHT22;67232;50.096;8.716;2023-05-10T13:32:40;21.40;66.40
75161;DHT22;67232;50.096;8.716;2023-05-10T13:35:08;21.40;66.50
75161;DHT22;67232;50.096;8.716;2023-05-10T13:37:36;21.50;66.30
75161;DHT22;67232;50.096;8.716;2023-05-10T13:40:03;21.50;65.50
75161;DHT22;67232;50.096;8.716;2023-05-10T13:42:29;21.50;65.00
75161;DHT22;67232;50.096;8.716;2023-05-10T13:44:55;21.40;65.40
75161;DHT22;67232;50.096;8.716;2023-05-10T13:47:20;21.40;65.20
75161;DHT22;67232;50.096;8.716;2023-05-10T13:49:47;21.40;65.90
75161;DHT22;67232;50.096;8.716;2023-05-10T13:52:15;21.40;63.90
75161;DHT22;67232;50.096;8.716;2023-05-10T13:54:41;21.40;62.20
75161;DHT22;67232;50.096;8.716;2023-05-10T13:57:06;21.40;60.60
75161;DHT22;67232;50.096;8.716;2023-05-10T13:59:32;21.40;61.60
75161;DHT22;67232;50.096;8.716;2023-05-10T14:01:58;21.50;62.20
75161;DHT22;67232;50.096;8.716;2023-05-10T14:04:29;21.60;60.80
75161;DHT22;67232;50.096;8.716;2023-05-10T14:06:56;21.50;61.40
75161;DHT22;67232;50.096;8.716;2023-05-10T14:09:22;21.60;60.60
75161;DHT22;67232;50.096;8.716;2023-05-10T14:11:50;21.50;60.40
75161;DHT22;67232;50.096;8.716;2023-05-10T14:14:15;21.50;59.60
75161;DHT22;67232;50.096;8.716;2023-05-10T14:16:45;21.50;60.10
75161;DHT22;67232;50.096;8.716;2023-05-10T14:19:11;21.40;60.60
75161;DHT22;67232;50.096;8.716;2023-05-10T14:21:37;21.40;60.10
75161;DHT22;67232;50.096;8.716;2023-05-10T14:24:03;21.40;60.20
75161;DHT22;67232;50.096;8.716;2023-05-10T14:26:29;21.30;59.40
75161;DHT22;67232;50.096;8.716;2023-05-10T14:28:55;21.30;60.00
75161;DHT22;67232;50.096;8.716;2023-05-10T14:31:21;21.20;59.90
75161;DHT22;67232;50.096;8.716;2023-05-10T14:33:46;21.10;59.30
75161;DHT22;67232;50.096;8.716;2023-05-10T14:36:12;20.80;60.50
75161;DHT22;67232;50.096;8.716;2023-05-10T14:38:41;20.70;61.20
75161;DHT22;67232;50.096;8.716;2023-05-10T14:41:06;20.70;62.20
75161;DHT22;67232;50.096;8.716;2023-05-10T14:43:35;20.80;61.50
75161;DHT22;67232;50.096;8.716;2023-05-10T14:46:01;20.90;63.30
75161;DHT22;67232;50.096;8.716;2023-05-10T14:48:27;20.90;60.30
75161;DHT22;67232;50.096;8.716;2023-05-10T14:50:52;21.00;61.20
75161;DHT22;67232;50.096;8.716;2023-05-10T14:53:18;21.00;61.80
75161;DHT22;67232;50.096;8.716;2023-05-10T14:55:51;21.00;60.00
75161;DHT22;67232;50.096;8.716;2023-05-10T14:58:19;21.00;59.80
75161;DHT22;67232;50.096;8.716;2023-05-10T15:00:44;21.00;60.50
75161;DHT22;67232;50.096;8.716;2023-05-10T15:03:11;21.00;60.60
75161;DHT22;67232;50.096;8.716;2023-05-10T15:05:37;21.00;59.30
75161;DHT22;67232;50.096;8.716;2023-05-10T15:08:03;20.90;60.80
75161;DHT22;67232;50.096;8.716;2023-05-10T15:10:31;20.90;60.60
75161;DHT22;67232;50.096;8.716;2023-05-10T15:12:58;21.10;61.00
75161;DHT22;67232;50.096;8.716;2023-05-10T15:15:24;21.10;61.40
75161;DHT22;67232;50.096;8.716;2023-05-10T15:17:52;21.00;60.30
75161;DHT22;67232;50.096;8.716;2023-05-10T15:20:17;21.00;60.50
75161;DHT22;67232;50.096;8.716;2023-05-10T15:22:43;20.90;60.50
75161;DHT22;67232;50.096;8.716;2023-05-10T15:25:08;21.00;60.60
75161;DHT22;67232;50.096;8.716;2023-05-10T15:27:35;21.10;62.00
75161;DHT22;67232;50.096;8.716;2023-05-10T15:30:00;21.10;61.30
75161;DHT22;67232;50.096;8.716;2023-05-10T15:32:26;21.10;61.80
75161;DHT22;67232;50.096;8.716;2023-05-10T15:34:54;21.20;61.00
75161;DHT22;67232;50.096;8.716;2023-05-10T15:37:20;21.10;59.70
75161;DHT22;67232;50.096;8.716;2023-05-10T15:39:49;21.10;60.80
75161;DHT22;67232;50.096;8.716;2023-05-10T15:42:17;21.10;61.60
75161;DHT22;67232;50.096;8.716;2023-05-10T15:44:42;21.00;60.40
75161;DHT22;67232;50.096;8.716;2023-05-10T15:47:09;20.90;61.60
75161;DHT22;67232;50.096;8.716;2023-05-10T15:49:37;20.70;63.00
75161;DHT22;67232;50.096;8.716;2023-05-10T15:52:03;20.70;62.00
75161;DHT22;67232;50.096;8.716;2023-05-10T15:54:28;20.50;62.50
75161;DHT22;67232;50.096;8.716;2023-05-10T15:56:54;20.40;63.00
75161;DHT22;67232;50.096;8.716;2023-05-10T15:59:19;20.30;63.60
75161;DHT22;67232;50.096;8.716;2023-05-10T16:01:45;20.20;63.40
75161;DHT22;67232;50.096;8.716;2023-05-10T16:04:11;20.20;62.50
75161;DHT22;67232;50.096;8.716;2023-05-10T16:06:36;20.10;63.50